Tupelo Regional Airport
KTUP : now visible

Airfield :











YOU CAN JOIN US ON...

 
LOGIN :

Register | Disclaimer

   EN    FR    IT 

 









Legend :    VFR   Marginal VFR   IFR   Intensive IFR   Very Intensive IFR
Visi :
Ceiling :
>= 8 km
>= 3000ft
5 to 8 km
1000 to 3000 ft
1500m to 5 km
500 to 1000 ft
800 to 1500m
200 to 500 ft
< 800m
< 200 ft
Symbols :   Thunderstorms  Fog  Heavy snow  Heavy precipitations  Wind > 20 kt






- Airport Elevation : 346 ft
- IATA code : TUP


KTUP - Tupelo Regional

CURRENT METAR :
  • 281253Z 24005KT 10SM FEW070 BKN090 BKN110 06/M02 A3016 RMK AO2 SLP213 T00561022

EXPIRED METARs :
  • 281153Z 24005KT 10SM BKN080 BKN100 05/M03 A3016 RMK AO2 SLP211 T00501028 10050 20028 56007
  • 281053Z AUTO 23005KT 10SM BKN085 OVC110 04/M03 A3015 RMK AO2 SLP211 T00441028

TAF KTUP
Valid from the 28 at 12:00 until the 29 at 12:00 UTC


281130Z 2812/2912 23005KT P6SM OVC080
FM281400 28007KT P6SM SCT100
FM290000 26006KT P6SM SKC
FM290600 29006KT P6SM FEW090
FM290900 33005KT P6SM FEW200



MET'MAP, your aeronautical weather chart ! - Copyright ORBIFLY December 2007 - Disclaimer

ORBIFLY MET'MAP TEAM :

Programming & Development : Alexandra Zaïnal
Concept & original design : Baudouin d'Aumeries
Assistance for programming : Marc-Olivier Méhu
Technical & hardware support : Manuel Goepfert

Contact : metmap@orbifly.com




SOURCES & CREDITS :

   NOAA       Earth
Advisory